createdAt,value
2022-09-09T00:00:24.046Z,14.60
2022-09-09T00:15:24.134Z,14.70
2022-09-09T00:30:24.717Z,14.65
2022-09-09T00:45:24.109Z,14.53
2022-09-09T01:00:24.283Z,14.45
2022-09-09T01:15:24.355Z,14.63
2022-09-09T01:30:24.159Z,14.30
2022-09-09T01:45:24.183Z,14.15
2022-09-09T02:00:33.371Z,14.00
2022-09-09T02:15:24.413Z,13.70
2022-09-09T02:30:23.304Z,14.07
2022-09-09T02:45:23.612Z,13.93
2022-09-09T03:00:23.609Z,14.00
2022-09-09T03:15:23.531Z,14.20
2022-09-09T03:30:23.445Z,14.05
2022-09-09T03:45:23.548Z,14.02
2022-09-09T04:00:23.508Z,14.12
2022-09-09T04:15:23.599Z,13.93
2022-09-09T04:30:25.998Z,13.95
2022-09-09T04:45:24.086Z,13.80
2022-09-09T05:00:32.255Z,13.83
2022-09-09T05:15:23.853Z,13.77
2022-09-09T05:30:25.742Z,13.60
2022-09-09T05:45:23.632Z,13.95
2022-09-09T06:00:40.856Z,14.00
2022-09-09T06:15:23.697Z,14.25
2022-09-09T06:30:23.653Z,14.52
2022-09-09T06:45:23.689Z,16.17
2022-09-09T07:00:40.743Z,17.02
2022-09-09T07:15:23.830Z,17.27
2022-09-09T07:30:27.900Z,17.38
2022-09-09T07:45:23.819Z,17.58
2022-09-09T08:00:28.394Z,18.08
2022-09-09T08:15:23.943Z,17.97
2022-09-09T08:30:23.883Z,18.03
2022-09-09T08:45:23.784Z,18.48
2022-09-09T09:00:44.290Z,18.85
2022-09-09T09:15:23.821Z,19.40
2022-09-09T09:30:30.225Z,19.80
2022-09-09T09:45:23.811Z,19.70
2022-09-09T10:00:28.454Z,20.10
2022-09-09T10:15:24.269Z,20.20
2022-09-09T10:30:24.611Z,20.10
2022-09-09T10:45:24.061Z,20.77
2022-09-09T11:00:27.669Z,21.03
2022-09-09T11:15:24.048Z,21.50
2022-09-09T11:30:54.854Z,21.42
2022-09-09T11:45:24.194Z,20.38
2022-09-09T12:00:39.563Z,20.80
2022-09-09T12:15:24.496Z,21.23
2022-09-09T12:30:42.769Z,21.45
2022-09-09T12:45:33.277Z,21.57
2022-09-09T13:00:44.821Z,21.40
2022-09-09T13:15:23.311Z,21.67
2022-09-09T13:30:28.679Z,22.10
2022-09-09T13:45:23.468Z,22.10
2022-09-09T14:00:34.211Z,21.90
2022-09-09T14:15:23.612Z,22.33
2022-09-09T14:30:28.690Z,22.35
2022-09-09T14:45:23.388Z,22.35
2022-09-09T15:00:32.655Z,22.37
2022-09-09T15:15:23.393Z,21.98
2022-09-09T15:30:26.858Z,22.08
2022-09-09T15:45:23.525Z,21.80
2022-09-09T16:00:24.497Z,21.55
2022-09-09T16:15:23.555Z,21.20
2022-09-09T16:30:25.658Z,21.00
2022-09-09T16:45:23.886Z,21.23
2022-09-09T17:00:55.908Z,20.97
2022-09-09T17:15:23.840Z,20.50
2022-09-09T17:30:28.851Z,20.12
2022-09-09T17:45:23.717Z,19.95
2022-09-09T18:00:48.879Z,19.58
2022-09-09T18:15:39.238Z,19.33
2022-09-09T18:30:30.143Z,19.25
2022-09-09T18:45:23.753Z,19.20
2022-09-09T19:00:31.146Z,19.10
2022-09-09T19:15:24.132Z,18.83
2022-09-09T19:30:23.830Z,18.67
2022-09-09T19:45:23.773Z,17.80
2022-09-09T20:00:23.937Z,18.05
2022-09-09T20:15:24.124Z,17.85
2022-09-09T20:30:23.939Z,17.83
2022-09-09T20:45:24.054Z,17.55
2022-09-09T21:00:23.986Z,17.27
2022-09-09T21:15:24.152Z,17.23
2022-09-09T21:30:31.571Z,17.08
2022-09-09T21:45:24.002Z,16.87
2022-09-09T22:01:04.304Z,17.50
2022-09-09T22:15:24.235Z,15.90
2022-09-09T22:30:24.382Z,16.08
2022-09-09T22:45:24.297Z,15.98
2022-09-09T23:00:24.206Z,15.90
2022-09-09T23:15:24.246Z,15.70
